createdAt,value
2019-03-18T00:00:31.770Z,1001
2019-03-18T00:01:30.750Z,1001
2019-03-18T00:02:30.903Z,1001
2019-03-18T00:03:31.045Z,1001
2019-03-18T00:04:31.217Z,1001
2019-03-18T00:05:31.208Z,1001
2019-03-18T00:06:31.230Z,1001
2019-03-18T00:07:31.210Z,1001
2019-03-18T00:08:31.357Z,1001
2019-03-18T00:09:32.554Z,1001
2019-03-18T00:10:31.541Z,1001
2019-03-18T00:11:31.564Z,1001
2019-03-18T00:12:31.551Z,1001
2019-03-18T00:13:31.760Z,1001
2019-03-18T00:14:31.774Z,1001
2019-03-18T00:15:31.783Z,1001
2019-03-18T00:16:31.946Z,1001
2019-03-18T00:17:31.966Z,1001
2019-03-18T00:18:31.959Z,1001
2019-03-18T00:19:31.968Z,1001
2019-03-18T00:20:31.948Z,1001
2019-03-18T00:21:32.130Z,1001
2019-03-18T00:22:32.118Z,1001
2019-03-18T00:23:32.102Z,1001
2019-03-18T00:24:32.286Z,1001
2019-03-18T00:25:32.272Z,1001
2019-03-18T00:26:32.423Z,1001
2019-03-18T00:27:32.416Z,1001
2019-03-18T00:28:32.426Z,1001
2019-03-18T00:29:32.554Z,1001
2019-03-18T00:30:32.623Z,1001
2019-03-18T00:31:32.740Z,1001
2019-03-18T00:32:32.723Z,1001
2019-03-18T00:33:32.886Z,1001
2019-03-18T00:34:32.916Z,1002
2019-03-18T00:35:32.928Z,1001
2019-03-18T00:36:32.899Z,1001
2019-03-18T00:37:32.894Z,1001
2019-03-18T00:38:32.883Z,1002
2019-03-18T00:39:32.927Z,1002
2019-03-18T00:40:32.909Z,1002
2019-03-18T00:41:34.049Z,1002
2019-03-18T00:42:33.208Z,1002
2019-03-18T00:43:33.358Z,1002
2019-03-18T00:44:33.557Z,1002
2019-03-18T00:45:33.550Z,1002
2019-03-18T00:46:34.702Z,1002
2019-03-18T00:47:33.699Z,1002
2019-03-18T00:48:33.857Z,1002
2019-03-18T00:49:34.058Z,1002
2019-03-18T00:50:34.051Z,1001
2019-03-18T00:51:34.070Z,1001
2019-03-18T00:52:34.056Z,1001
2019-03-18T00:53:34.066Z,1001
2019-03-18T00:54:34.282Z,1001
2019-03-18T00:55:34.272Z,1001
2019-03-18T00:56:34.419Z,1001
2019-03-18T00:57:34.411Z,1001
2019-03-18T00:58:34.559Z,1001
2019-03-18T00:59:34.752Z,1001
2019-03-18T01:00:34.795Z,1001
2019-03-18T01:01:34.748Z,1001
2019-03-18T01:02:34.731Z,1001
2019-03-18T01:03:34.901Z,1001
2019-03-18T01:04:34.960Z,1001
2019-03-18T01:05:34.971Z,1001
2019-03-18T01:06:34.961Z,1001
2019-03-18T01:07:35.111Z,1001
2019-03-18T01:08:35.268Z,1001
2019-03-18T01:09:35.446Z,1001
2019-03-18T01:10:35.429Z,1001
2019-03-18T01:11:35.443Z,1002
2019-03-18T01:12:35.422Z,1002
2019-03-18T01:13:35.430Z,1002
2019-03-18T01:14:35.735Z,1002
2019-03-18T01:15:35.718Z,1002
2019-03-18T01:16:35.885Z,1002
2019-03-18T01:17:35.868Z,1002
2019-03-18T01:18:35.892Z,1002
2019-03-18T01:19:35.901Z,1002
2019-03-18T01:20:36.023Z,1002
2019-03-18T01:21:36.024Z,1002
2019-03-18T01:22:36.021Z,1002
2019-03-18T01:23:36.023Z,1002
2019-03-18T01:24:36.007Z,1002
2019-03-18T01:25:36.061Z,1002
2019-03-18T01:26:36.059Z,1002
2019-03-18T01:27:36.062Z,1002
2019-03-18T01:28:36.209Z,1002
2019-03-18T01:29:36.389Z,1002
2019-03-18T01:30:36.432Z,1002
2019-03-18T01:31:36.416Z,1002
2019-03-18T01:32:36.560Z,1002
2019-03-18T01:33:36.713Z,1002
2019-03-18T01:34:36.872Z,1002
2019-03-18T01:35:39.918Z,1002
2019-03-18T01:36:37.203Z,1002
2019-03-18T01:37:37.274Z,1002
2019-03-18T01:38:37.264Z,1002
2019-03-18T01:39:37.281Z,1002
2019-03-18T01:40:37.308Z,1002
2019-03-18T01:41:37.324Z,1002
2019-03-18T01:42:37.300Z,1002
2019-03-18T01:43:37.317Z,1002
2019-03-18T01:44:37.303Z,1002
2019-03-18T01:45:40.824Z,1002
2019-03-18T01:46:37.438Z,1002
2019-03-18T01:47:37.458Z,1002
2019-03-18T01:48:37.457Z,1002
2019-03-18T01:49:37.453Z,1002
2019-03-18T01:50:37.488Z,1002
2019-03-18T01:51:37.489Z,1002
2019-03-18T01:52:37.499Z,1002
2019-03-18T01:53:37.529Z,1002
2019-03-18T01:54:37.576Z,1002
2019-03-18T01:55:37.749Z,1002
2019-03-18T01:56:37.755Z,1002
2019-03-18T01:57:37.746Z,1002
2019-03-18T01:58:37.896Z,1002
2019-03-18T01:59:37.919Z,1002
2019-03-18T02:00:37.962Z,1002
2019-03-18T02:01:37.956Z,1002
2019-03-18T02:02:37.987Z,1002
2019-03-18T02:03:37.996Z,1002
2019-03-18T02:04:37.996Z,1002
2019-03-18T02:05:38.004Z,1002
2019-03-18T02:06:38.003Z,1002
2019-03-18T02:07:38.018Z,1002
2019-03-18T02:08:38.991Z,1002
2019-03-18T02:09:38.047Z,1002
2019-03-18T02:10:38.077Z,1002
2019-03-18T02:11:38.081Z,1002
2019-03-18T02:12:38.096Z,1002
2019-03-18T02:13:38.081Z,1002
2019-03-18T02:14:38.235Z,1002
2019-03-18T02:15:38.255Z,1002
2019-03-18T02:16:39.226Z,1002
2019-03-18T02:17:38.230Z,1002
2019-03-18T02:18:38.246Z,1002
2019-03-18T02:19:38.264Z,1002
2019-03-18T02:20:38.442Z,1002
2019-03-18T02:21:38.440Z,1002
2019-03-18T02:22:38.440Z,1002
2019-03-18T02:23:38.509Z,1002
2019-03-18T02:24:38.509Z,1002
2019-03-18T02:25:38.524Z,1002
2019-03-18T02:26:38.507Z,1002
2019-03-18T02:27:38.528Z,1002
2019-03-18T02:28:38.519Z,1002
2019-03-18T02:29:38.526Z,1002
2019-03-18T02:30:38.569Z,1002
2019-03-18T02:31:38.574Z,1002
2019-03-18T02:32:38.614Z,1002
2019-03-18T02:33:38.610Z,1002
2019-03-18T02:34:38.614Z,1002
2019-03-18T02:35:38.645Z,1002
2019-03-18T02:36:38.636Z,1002
2019-03-18T02:37:38.679Z,1002
2019-03-18T02:38:38.698Z,1002
2019-03-18T02:39:38.722Z,1002
2019-03-18T02:40:38.756Z,1002
2019-03-18T02:41:38.750Z,1002
2019-03-18T02:42:38.767Z,1002
2019-03-18T02:43:38.771Z,1002
2019-03-18T02:44:38.766Z,1002
2019-03-18T02:45:38.813Z,1002
2019-03-18T02:46:38.828Z,1002
2019-03-18T02:47:38.839Z,1002
2019-03-18T02:48:38.858Z,1002
2019-03-18T02:49:38.877Z,1002
2019-03-18T02:50:38.915Z,1002
2019-03-18T02:51:38.957Z,1002
2019-03-18T02:52:38.992Z,1002
2019-03-18T02:53:39.010Z,1002
2019-03-18T02:54:39.035Z,1002
2019-03-18T02:55:39.120Z,1002
2019-03-18T02:56:39.201Z,1002
2019-03-18T02:57:39.206Z,1002
2019-03-18T02:58:39.223Z,1002
2019-03-18T02:59:39.263Z,1002
2019-03-18T03:00:39.316Z,1002
2019-03-18T03:01:39.342Z,1002
2019-03-18T03:02:39.388Z,1002
2019-03-18T03:03:39.415Z,1002
2019-03-18T03:04:39.586Z,1002
2019-03-18T03:05:39.715Z,1002
2019-03-18T03:06:39.810Z,1002
2019-03-18T03:07:39.906Z,1002
2019-03-18T03:08:40.001Z,1002
2019-03-18T03:09:40.102Z,1002
2019-03-18T03:10:40.223Z,1002
2019-03-18T03:11:40.310Z,1002
2019-03-18T03:12:40.469Z,1002
2019-03-18T03:13:40.639Z,1002
2019-03-18T03:14:40.568Z,1002
2019-03-18T03:15:40.682Z,1002
2019-03-18T03:16:40.735Z,1002
2019-03-18T03:17:40.823Z,1002
2019-03-18T03:18:40.939Z,1002
2019-03-18T03:19:41.021Z,1002
2019-03-18T03:20:41.157Z,1002
2019-03-18T03:21:41.251Z,1002
2019-03-18T03:22:41.349Z,1002
2019-03-18T03:23:41.446Z,1002
2019-03-18T03:24:41.540Z,1002
2019-03-18T03:25:41.657Z,1002
2019-03-18T03:26:41.775Z,1002
2019-03-18T03:27:41.831Z,1002
2019-03-18T03:28:41.852Z,1002
2019-03-18T03:29:41.874Z,1002
2019-03-18T03:30:41.924Z,1002
2019-03-18T03:31:41.943Z,1002
2019-03-18T03:32:41.982Z,1002
2019-03-18T03:33:42.032Z,1002
2019-03-18T03:34:42.100Z,1002
2019-03-18T03:35:42.224Z,1002
2019-03-18T03:36:42.349Z,1002
2019-03-18T03:37:42.398Z,1002
2019-03-18T03:38:42.494Z,1002
2019-03-18T03:39:42.575Z,1002
2019-03-18T03:40:42.697Z,1002
2019-03-18T03:41:42.803Z,1002
2019-03-18T03:42:42.898Z,1002
2019-03-18T03:43:42.990Z,1002
2019-03-18T03:44:43.090Z,1002
2019-03-18T03:45:43.210Z,1002
2019-03-18T03:46:44.113Z,1002
2019-03-18T03:47:43.392Z,1002
2019-03-18T03:48:43.481Z,1002
2019-03-18T03:49:43.584Z,1002
2019-03-18T03:50:43.716Z,1002
2019-03-18T03:51:43.827Z,1002
2019-03-18T03:52:43.918Z,1002
2019-03-18T03:53:44.020Z,1002
2019-03-18T03:54:44.126Z,1002
2019-03-18T03:55:44.367Z,1002
2019-03-18T03:56:44.301Z,1002
2019-03-18T03:57:44.408Z,1002
2019-03-18T03:58:44.502Z,1002
2019-03-18T03:59:44.606Z,1003
2019-03-18T04:00:44.747Z,1003
2019-03-18T04:01:44.891Z,1002
2019-03-18T04:02:45.103Z,1003
2019-03-18T04:03:45.104Z,1003
2019-03-18T04:04:45.211Z,1003
2019-03-18T04:05:45.353Z,1003
2019-03-18T04:06:45.456Z,1003
2019-03-18T04:07:45.557Z,1003
2019-03-18T04:08:45.667Z,1003
2019-03-18T04:09:45.767Z,1003
2019-03-18T04:10:45.932Z,1003
2019-03-18T04:11:45.875Z,1003
2019-03-18T04:12:45.967Z,1003
2019-03-18T04:13:46.071Z,1003
2019-03-18T04:14:46.180Z,1003
2019-03-18T04:15:46.323Z,1003
2019-03-18T04:17:00.595Z,1003
2019-03-18T04:17:47.346Z,1003
2019-03-18T04:18:46.437Z,1003
2019-03-18T04:19:46.536Z,1003
2019-03-18T04:20:46.697Z,1003
2019-03-18T04:21:50.326Z,1003
2019-03-18T04:22:46.740Z,1003
2019-03-18T04:23:46.821Z,1003
2019-03-18T04:24:46.913Z,1003
2019-03-18T04:25:47.114Z,1003
2019-03-18T04:26:47.066Z,1003
2019-03-18T04:27:47.173Z,1003
2019-03-18T04:28:47.268Z,1003
2019-03-18T04:29:47.381Z,1003
2019-03-18T04:30:47.522Z,1003
2019-03-18T04:31:47.506Z,1003
2019-03-18T04:32:47.614Z,1003
2019-03-18T04:33:47.620Z,1003
2019-03-18T04:34:47.719Z,1003
2019-03-18T04:35:47.820Z,1003
2019-03-18T04:36:47.840Z,1003
2019-03-18T04:37:47.967Z,1003
2019-03-18T04:38:48.074Z,1003
2019-03-18T04:39:48.062Z,1003
2019-03-18T04:40:48.171Z,1003
2019-03-18T04:41:48.298Z,1003
2019-03-18T04:42:48.395Z,1003
2019-03-18T04:43:48.512Z,1003
2019-03-18T04:44:48.645Z,1003
2019-03-18T04:45:48.746Z,1003
2019-03-18T04:46:48.879Z,1003
2019-03-18T04:47:48.989Z,1003
2019-03-18T04:48:49.080Z,1003
2019-03-18T04:49:49.188Z,1003
2019-03-18T04:50:49.279Z,1003
2019-03-18T04:51:49.425Z,1003
2019-03-18T04:52:49.535Z,1003
2019-03-18T04:53:49.640Z,1003
2019-03-18T04:54:49.926Z,1003
2019-03-18T04:55:49.854Z,1003
2019-03-18T04:56:50.009Z,1003
2019-03-18T04:57:50.158Z,1003
2019-03-18T04:58:50.266Z,1003
2019-03-18T04:59:50.369Z,1003
2019-03-18T05:00:50.454Z,1003
2019-03-18T05:01:50.585Z,1003
2019-03-18T05:02:50.677Z,1003
2019-03-18T05:03:50.778Z,1003
2019-03-18T05:04:50.880Z,1003
2019-03-18T05:05:51.001Z,1003
2019-03-18T05:06:51.142Z,1003
2019-03-18T05:07:51.268Z,1003
2019-03-18T05:08:51.392Z,1003
2019-03-18T05:09:51.484Z,1003
2019-03-18T05:10:51.595Z,1003
2019-03-18T05:11:51.722Z,1003
2019-03-18T05:12:51.819Z,1003
2019-03-18T05:13:52.039Z,1003
2019-03-18T05:14:52.031Z,1003
2019-03-18T05:15:52.152Z,1003
2019-03-18T05:16:52.268Z,1003
2019-03-18T05:17:52.376Z,1003
2019-03-18T05:18:52.555Z,1003
2019-03-18T05:19:52.483Z,1004
2019-03-18T05:20:52.574Z,1004
2019-03-18T05:21:52.683Z,1004
2019-03-18T05:22:52.779Z,1004
2019-03-18T05:23:52.877Z,1004
2019-03-18T05:24:52.980Z,1004
2019-03-18T05:25:53.080Z,1004
2019-03-18T05:26:53.221Z,1004
2019-03-18T05:27:53.324Z,1004
2019-03-18T05:28:53.433Z,1004
2019-03-18T05:29:53.534Z,1004
2019-03-18T05:30:53.636Z,1004
2019-03-18T05:31:53.763Z,1004
2019-03-18T05:32:53.876Z,1004
2019-03-18T05:33:53.974Z,1004
2019-03-18T05:34:54.065Z,1004
2019-03-18T05:35:54.203Z,1004
2019-03-18T05:36:54.312Z,1004
2019-03-18T05:37:54.415Z,1004
2019-03-18T05:38:54.532Z,1004
2019-03-18T05:39:54.622Z,1004
2019-03-18T05:40:54.770Z,1004
2019-03-18T05:41:54.955Z,1004
2019-03-18T05:42:54.955Z,1004
2019-03-18T05:43:55.073Z,1004
2019-03-18T05:44:55.263Z,1004
2019-03-18T05:45:55.242Z,1004
2019-03-18T05:46:55.419Z,1004
2019-03-18T05:47:55.407Z,1004
2019-03-18T05:48:55.531Z,1004
2019-03-18T05:49:55.661Z,1004
2019-03-18T05:50:55.661Z,1004
2019-03-18T05:51:55.720Z,1004
2019-03-18T05:52:55.765Z,1004
2019-03-18T05:53:56.807Z,1004
2019-03-18T05:54:55.884Z,1004
2019-03-18T05:55:55.927Z,1004
2019-03-18T05:56:56.003Z,1004
2019-03-18T05:57:57.023Z,1004
2019-03-18T05:58:56.055Z,1004
2019-03-18T05:59:56.064Z,1004
2019-03-18T06:00:56.217Z,1004
2019-03-18T06:01:56.456Z,1004
2019-03-18T06:02:56.333Z,1004
2019-03-18T06:03:56.312Z,1004
2019-03-18T06:04:56.393Z,1004
2019-03-18T06:05:56.427Z,1004
2019-03-18T06:06:56.508Z,1004
2019-03-18T06:07:56.525Z,1004
2019-03-18T06:08:56.567Z,1004
2019-03-18T06:09:56.616Z,1004
2019-03-18T06:10:56.654Z,1004
2019-03-18T06:11:56.717Z,1004
2019-03-18T06:12:56.757Z,1004
2019-03-18T06:13:56.807Z,1004
2019-03-18T06:14:56.823Z,1004
2019-03-18T06:15:56.855Z,1004
2019-03-18T06:16:56.918Z,1004
2019-03-18T06:17:56.945Z,1004
2019-03-18T06:18:57.274Z,1004
2019-03-18T06:19:57.030Z,1004
2019-03-18T06:20:57.073Z,1004
2019-03-18T06:21:57.131Z,1004
2019-03-18T06:22:57.188Z,1004
2019-03-18T06:23:57.227Z,1004
2019-03-18T06:24:57.274Z,1004
2019-03-18T06:25:57.315Z,1004
2019-03-18T06:26:57.403Z,1004
2019-03-18T06:27:57.417Z,1004
2019-03-18T06:28:57.488Z,1005
2019-03-18T06:29:57.541Z,1005
2019-03-18T06:30:57.584Z,1004
2019-03-18T06:31:57.648Z,1004
2019-03-18T06:32:57.718Z,1004
2019-03-18T06:33:57.752Z,1005
2019-03-18T06:34:57.789Z,1005
2019-03-18T06:35:57.824Z,1005
2019-03-18T06:36:57.883Z,1005
2019-03-18T06:37:57.950Z,1005
2019-03-18T06:38:57.991Z,1005
2019-03-18T06:39:58.032Z,1005
2019-03-18T06:40:58.080Z,1005
2019-03-18T06:41:58.131Z,1005
2019-03-18T06:42:58.170Z,1005
2019-03-18T06:43:58.227Z,1005
2019-03-18T06:44:58.264Z,1005
2019-03-18T06:45:58.306Z,1005
2019-03-18T06:46:58.376Z,1005
2019-03-18T06:48:04.553Z,1005
2019-03-18T06:48:59.419Z,1005
2019-03-18T06:49:58.453Z,1005
2019-03-18T06:50:58.504Z,1005
2019-03-18T06:51:58.580Z,1005
2019-03-18T06:52:58.607Z,1005
2019-03-18T06:53:58.655Z,1005
2019-03-18T06:54:58.712Z,1005
2019-03-18T06:55:58.758Z,1005
2019-03-18T06:56:58.843Z,1005
2019-03-18T06:57:58.882Z,1005
2019-03-18T06:58:58.947Z,1005
2019-03-18T06:59:59.000Z,1005
2019-03-18T07:00:59.022Z,1005
2019-03-18T07:01:59.117Z,1005
2019-03-18T07:02:59.208Z,1005
2019-03-18T07:03:59.244Z,1005
2019-03-18T07:04:59.281Z,1005
2019-03-18T07:05:59.328Z,1005
2019-03-18T07:06:59.398Z,1005
2019-03-18T07:07:59.439Z,1005
2019-03-18T07:08:59.478Z,1005
2019-03-18T07:09:59.531Z,1005
2019-03-18T07:10:59.567Z,1005
2019-03-18T07:11:59.800Z,1005
2019-03-18T07:12:59.709Z,1005
2019-03-18T07:13:59.762Z,1005
2019-03-18T07:14:59.806Z,1005
2019-03-18T07:16:00.173Z,1005
2019-03-18T07:16:59.917Z,1005
2019-03-18T07:17:59.956Z,1005
2019-03-18T07:19:00.985Z,1005
2019-03-18T07:20:00.042Z,1005
2019-03-18T07:21:01.081Z,1005
2019-03-18T07:22:00.156Z,1005
2019-03-18T07:23:00.198Z,1005
2019-03-18T07:24:00.240Z,1005
2019-03-18T07:25:00.378Z,1005
2019-03-18T07:26:00.323Z,1005
2019-03-18T07:27:00.426Z,1005
2019-03-18T07:28:00.483Z,1005
2019-03-18T07:29:00.534Z,1005
2019-03-18T07:30:00.577Z,1005
2019-03-18T07:31:00.616Z,1006
2019-03-18T07:32:00.776Z,1006
2019-03-18T07:33:00.838Z,1006
2019-03-18T07:34:00.861Z,1006
2019-03-18T07:35:00.898Z,1006
2019-03-18T07:36:00.945Z,1006
2019-03-18T07:37:01.035Z,1006
2019-03-18T07:38:01.076Z,1006
2019-03-18T07:39:01.121Z,1006
2019-03-18T07:40:01.159Z,1006
2019-03-18T07:41:01.194Z,1006
2019-03-18T07:42:01.271Z,1006
2019-03-18T07:43:01.308Z,1006
2019-03-18T07:44:01.354Z,1006
2019-03-18T07:45:01.407Z,1006
2019-03-18T07:46:01.453Z,1006
2019-03-18T07:47:01.554Z,1006
2019-03-18T07:48:01.633Z,1006
2019-03-18T07:49:02.668Z,1006
2019-03-18T07:50:01.750Z,1006
2019-03-18T07:51:01.786Z,1006
2019-03-18T07:52:01.852Z,1006
2019-03-18T07:53:01.844Z,1006
2019-03-18T07:54:01.899Z,1006
2019-03-18T07:55:01.988Z,1006
2019-03-18T07:56:02.034Z,1006
2019-03-18T07:57:02.074Z,1006
2019-03-18T07:58:02.156Z,1006
2019-03-18T07:59:02.225Z,1006
2019-03-18T08:00:02.277Z,1006
2019-03-18T08:01:02.389Z,1006
2019-03-18T08:02:02.370Z,1006
2019-03-18T08:03:03.527Z,1006
2019-03-18T08:04:02.457Z,1006
2019-03-18T08:05:02.544Z,1006
2019-03-18T08:06:02.586Z,1006
2019-03-18T08:07:02.625Z,1006
2019-03-18T08:08:03.698Z,1006
2019-03-18T08:09:02.731Z,1006
2019-03-18T08:10:02.772Z,1006
2019-03-18T08:11:02.823Z,1006
2019-03-18T08:12:02.875Z,1006
2019-03-18T08:13:02.967Z,1006
2019-03-18T08:14:03.011Z,1006
2019-03-18T08:15:03.086Z,1006
2019-03-18T08:16:03.122Z,1006
2019-03-18T08:17:03.161Z,1006
2019-03-18T08:18:03.221Z,1006
2019-03-18T08:19:03.261Z,1006
2019-03-18T08:20:03.694Z,1006
2019-03-18T08:21:03.389Z,1006
2019-03-18T08:22:03.444Z,1006
2019-03-18T08:23:03.559Z,1006
2019-03-18T08:24:03.596Z,1006
2019-03-18T08:25:03.667Z,1006
2019-03-18T08:26:03.736Z,1006
2019-03-18T08:27:03.788Z,1006
2019-03-18T08:28:03.908Z,1006
2019-03-18T08:29:03.945Z,1006
2019-03-18T08:30:03.981Z,1006
2019-03-18T08:31:04.089Z,1006
2019-03-18T08:32:04.172Z,1006
2019-03-18T08:33:04.324Z,1006
2019-03-18T08:34:04.363Z,1006
2019-03-18T08:35:04.406Z,1006
2019-03-18T08:36:04.485Z,1006
2019-03-18T08:37:04.518Z,1006
2019-03-18T08:38:04.596Z,1006
2019-03-18T08:39:04.649Z,1006
2019-03-18T08:40:05.242Z,1006
2019-03-18T08:41:04.783Z,1006
2019-03-18T08:42:04.821Z,1006
2019-03-18T08:43:04.890Z,1006
2019-03-18T08:44:04.929Z,1006
2019-03-18T08:45:04.970Z,1006
2019-03-18T08:46:05.113Z,1006
2019-03-18T08:47:05.163Z,1006
2019-03-18T08:48:05.232Z,1006
2019-03-18T08:49:05.295Z,1006
2019-03-18T08:50:05.370Z,1006
2019-03-18T08:51:06.413Z,1006
2019-03-18T08:52:05.442Z,1006
2019-03-18T08:53:05.490Z,1006
2019-03-18T08:54:05.532Z,1006
2019-03-18T08:55:05.586Z,1006
2019-03-18T08:56:05.624Z,1006
2019-03-18T08:57:05.664Z,1006
2019-03-18T08:58:05.738Z,1006
2019-03-18T08:59:05.783Z,1006
2019-03-18T09:00:05.810Z,1007
2019-03-18T09:01:05.848Z,1006
2019-03-18T09:02:05.887Z,1006
2019-03-18T09:03:05.955Z,1006
2019-03-18T09:04:06.012Z,1007
2019-03-18T09:05:06.059Z,1006
2019-03-18T09:06:06.100Z,1007
2019-03-18T09:07:06.127Z,1007
2019-03-18T09:08:06.191Z,1006
2019-03-18T09:09:06.236Z,1007
2019-03-18T09:10:06.345Z,1007
2019-03-18T09:11:06.401Z,1007
2019-03-18T09:12:06.440Z,1007
2019-03-18T09:13:06.511Z,1007
2019-03-18T09:14:06.560Z,1007
2019-03-18T09:15:06.602Z,1007
2019-03-18T09:16:06.652Z,1007
2019-03-18T09:17:06.686Z,1007
2019-03-18T09:18:06.733Z,1007
2019-03-18T09:19:08.807Z,1007
2019-03-18T09:20:06.838Z,1007
2019-03-18T09:21:06.881Z,1007
2019-03-18T09:22:06.938Z,1007
2019-03-18T09:23:06.981Z,1007
2019-03-18T09:24:07.044Z,1007
2019-03-18T09:25:07.071Z,1007
2019-03-18T09:26:07.117Z,1007
2019-03-18T09:27:07.148Z,1007
2019-03-18T09:28:07.218Z,1007
2019-03-18T09:29:07.261Z,1007
2019-03-18T09:30:07.298Z,1007
2019-03-18T09:31:07.341Z,1007
2019-03-18T09:32:07.378Z,1007
2019-03-18T09:33:07.440Z,1007
2019-03-18T09:34:07.480Z,1007
2019-03-18T09:35:07.514Z,1007
2019-03-18T09:36:07.563Z,1007
2019-03-18T09:37:07.603Z,1007
2019-03-18T09:38:07.668Z,1007
2019-03-18T09:39:07.708Z,1007
2019-03-18T09:40:07.749Z,1007
2019-03-18T09:41:07.794Z,1007
2019-03-18T09:42:07.855Z,1007
2019-03-18T09:43:07.925Z,1007
2019-03-18T09:44:08.022Z,1007
2019-03-18T09:45:08.095Z,1007
2019-03-18T09:46:08.134Z,1007
2019-03-18T09:47:08.179Z,1007
2019-03-18T09:48:08.250Z,1007
2019-03-18T09:49:20.511Z,1007
2019-03-18T09:50:09.373Z,1007
2019-03-18T09:51:09.611Z,1007
2019-03-18T09:52:08.422Z,1007
2019-03-18T09:53:08.494Z,1007
2019-03-18T09:54:08.558Z,1007
2019-03-18T09:55:08.590Z,1007
2019-03-18T09:56:08.636Z,1007
2019-03-18T09:57:08.728Z,1007
2019-03-18T09:58:09.803Z,1007
2019-03-18T09:59:08.842Z,1007
2019-03-18T10:00:10.979Z,1007
2019-03-18T10:01:08.906Z,1007
2019-03-18T10:02:08.949Z,1007
2019-03-18T10:03:09.011Z,1007
2019-03-18T10:04:09.085Z,1007
2019-03-18T10:05:09.150Z,1007
2019-03-18T10:06:09.187Z,1007
2019-03-18T10:07:09.240Z,1007
2019-03-18T10:08:09.307Z,1007
2019-03-18T10:09:09.343Z,1007
2019-03-18T10:10:09.385Z,1007
2019-03-18T10:11:09.429Z,1007
2019-03-18T10:12:09.483Z,1007
2019-03-18T10:13:09.560Z,1007
2019-03-18T10:14:09.631Z,1007
2019-03-18T10:15:09.667Z,1007
2019-03-18T10:16:09.707Z,1007
2019-03-18T10:17:10.220Z,1007
2019-03-18T10:18:09.800Z,1007
2019-03-18T10:19:09.869Z,1007
2019-03-18T10:20:09.937Z,1007
2019-03-18T10:21:09.976Z,1007
2019-03-18T10:22:10.010Z,1007
2019-03-18T10:23:11.088Z,1007
2019-03-18T10:24:10.108Z,1007
2019-03-18T10:25:10.149Z,1007
2019-03-18T10:26:10.194Z,1007
2019-03-18T10:27:10.280Z,1007
2019-03-18T10:28:10.331Z,1007
2019-03-18T10:29:11.375Z,1007
2019-03-18T10:30:10.432Z,1007
2019-03-18T10:31:10.488Z,1007
2019-03-18T10:32:10.557Z,1007
2019-03-18T10:33:10.663Z,1007
2019-03-18T10:34:10.698Z,1007
2019-03-18T10:35:10.758Z,1007
2019-03-18T10:36:10.808Z,1007
2019-03-18T10:37:10.859Z,1007
2019-03-18T10:38:10.950Z,1007
2019-03-18T10:39:10.996Z,1007
2019-03-18T10:40:11.045Z,1007
2019-03-18T10:41:11.085Z,1007
2019-03-18T10:42:11.127Z,1007
2019-03-18T10:43:11.229Z,1007
2019-03-18T10:44:11.254Z,1007
2019-03-18T10:45:11.298Z,1007
2019-03-18T10:46:11.333Z,1007
2019-03-18T10:47:11.391Z,1007
2019-03-18T10:48:11.457Z,1007
2019-03-18T10:49:11.495Z,1007
2019-03-18T10:50:11.578Z,1007
2019-03-18T10:51:11.627Z,1007
2019-03-18T10:52:11.753Z,1007
2019-03-18T10:53:11.774Z,1007
2019-03-18T10:54:11.877Z,1007
2019-03-18T10:55:11.904Z,1007
2019-03-18T10:56:11.914Z,1007
2019-03-18T10:57:11.970Z,1008
2019-03-18T10:58:12.025Z,1008
2019-03-18T10:59:13.138Z,1008
2019-03-18T11:00:12.265Z,1008
2019-03-18T11:01:12.383Z,1008
2019-03-18T11:02:12.500Z,1008
2019-03-18T11:03:12.599Z,1008
2019-03-18T11:04:12.616Z,1007
2019-03-18T11:05:12.658Z,1007
2019-03-18T11:06:12.702Z,1007
2019-03-18T11:07:12.750Z,1007
2019-03-18T11:08:12.829Z,1008
2019-03-18T11:09:12.911Z,1007
2019-03-18T11:10:13.912Z,1008
2019-03-18T11:11:12.954Z,1008
2019-03-18T11:12:12.996Z,1008
2019-03-18T11:13:13.095Z,1008
2019-03-18T11:14:13.184Z,1008
2019-03-18T11:15:13.253Z,1007
2019-03-18T11:16:13.303Z,1007
2019-03-18T11:17:13.340Z,1007
2019-03-18T11:18:13.393Z,1007
2019-03-18T11:19:13.472Z,1007
2019-03-18T11:20:13.536Z,1008
2019-03-18T11:21:13.568Z,1008
2019-03-18T11:22:13.629Z,1007
2019-03-18T11:23:13.686Z,1007
2019-03-18T11:24:13.779Z,1007
2019-03-18T11:25:13.790Z,1007
2019-03-18T11:26:13.865Z,1008
2019-03-18T11:27:13.902Z,1007
2019-03-18T11:28:13.943Z,1008
2019-03-18T11:29:14.003Z,1008
2019-03-18T11:30:14.050Z,1008
2019-03-18T11:31:14.091Z,1008
2019-03-18T11:32:14.169Z,1008
2019-03-18T11:33:14.267Z,1008
2019-03-18T11:34:14.359Z,1008
2019-03-18T11:35:14.477Z,1008
2019-03-18T11:36:14.565Z,1008
2019-03-18T11:37:14.649Z,1008
2019-03-18T11:38:14.758Z,1008
2019-03-18T11:39:14.874Z,1008
2019-03-18T11:40:15.007Z,1008
2019-03-18T11:41:17.348Z,1008
2019-03-18T11:42:15.104Z,1008
2019-03-18T11:43:15.227Z,1008
2019-03-18T11:44:15.356Z,1008
2019-03-18T11:45:15.430Z,1008
2019-03-18T11:46:15.542Z,1008
2019-03-18T11:47:15.627Z,1008
2019-03-18T11:48:15.751Z,1008
2019-03-18T11:49:15.892Z,1008
2019-03-18T11:50:16.003Z,1008
2019-03-18T11:51:16.067Z,1008
2019-03-18T11:52:16.163Z,1008
2019-03-18T11:53:16.185Z,1008
2019-03-18T11:54:16.282Z,1008
2019-03-18T11:55:16.307Z,1008
2019-03-18T11:56:16.343Z,1008
2019-03-18T11:57:16.385Z,1008
2019-03-18T11:58:16.438Z,1008
2019-03-18T11:59:16.555Z,1008
2019-03-18T12:00:16.664Z,1008
2019-03-18T12:01:16.778Z,1008
2019-03-18T12:02:27.120Z,1008
2019-03-18T12:03:17.883Z,1008
2019-03-18T12:04:16.950Z,1008
2019-03-18T12:05:17.009Z,1008
2019-03-18T12:06:17.071Z,1008
2019-03-18T12:07:17.178Z,1008
2019-03-18T12:08:17.317Z,1008
2019-03-18T12:09:17.486Z,1008
2019-03-18T12:10:17.548Z,1008
2019-03-18T12:11:17.634Z,1008
2019-03-18T12:12:17.741Z,1008
2019-03-18T12:13:17.780Z,1008
2019-03-18T12:14:17.876Z,1008
2019-03-18T12:15:17.925Z,1008
2019-03-18T12:16:17.956Z,1008
2019-03-18T12:17:17.998Z,1008
2019-03-18T12:18:18.088Z,1008
2019-03-18T12:19:18.232Z,1008
2019-03-18T12:20:24.594Z,1008
2019-03-18T12:21:19.295Z,1008
2019-03-18T12:22:18.407Z,1008
2019-03-18T12:23:18.511Z,1008
2019-03-18T12:24:18.601Z,1008
2019-03-18T12:25:18.710Z,1008
2019-03-18T12:26:18.833Z,1008
2019-03-18T12:27:18.956Z,1008
2019-03-18T12:28:18.942Z,1008
2019-03-18T12:29:19.070Z,1008
2019-03-18T12:30:19.140Z,1008
2019-03-18T12:31:19.166Z,1008
2019-03-18T12:32:19.226Z,1008
2019-03-18T12:33:19.299Z,1008
2019-03-18T12:34:19.408Z,1008
2019-03-18T12:35:19.476Z,1008
2019-03-18T12:36:19.537Z,1008
2019-03-18T12:37:19.619Z,1008
2019-03-18T12:38:19.744Z,1008
2019-03-18T12:39:19.823Z,1008
2019-03-18T12:40:19.874Z,1008
2019-03-18T12:41:19.917Z,1008
2019-03-18T12:42:19.961Z,1008
2019-03-18T12:43:20.038Z,1008
2019-03-18T12:44:20.093Z,1008
2019-03-18T12:45:20.138Z,1008
2019-03-18T12:46:20.181Z,1008
2019-03-18T12:47:20.291Z,1008
2019-03-18T12:48:20.318Z,1008
2019-03-18T12:49:20.403Z,1008
2019-03-18T12:50:36.251Z,1008
2019-03-18T12:51:21.456Z,1008
2019-03-18T12:52:20.502Z,1008
2019-03-18T12:53:20.602Z,1008
2019-03-18T12:54:20.676Z,1008
2019-03-18T12:55:20.722Z,1008
2019-03-18T12:56:20.758Z,1008
2019-03-18T12:57:20.831Z,1008
2019-03-18T12:58:20.904Z,1008
2019-03-18T12:59:20.956Z,1008
2019-03-18T13:00:21.011Z,1008
2019-03-18T13:01:21.084Z,1008
2019-03-18T13:02:21.130Z,1008
2019-03-18T13:03:21.176Z,1008
2019-03-18T13:04:21.231Z,1008
2019-03-18T13:05:21.269Z,1008
2019-03-18T13:06:21.309Z,1008
2019-03-18T13:07:21.348Z,1008
2019-03-18T13:08:21.561Z,1008
2019-03-18T13:09:21.524Z,1008
2019-03-18T13:10:22.098Z,1008
2019-03-18T13:11:21.542Z,1008
2019-03-18T13:12:21.629Z,1008
2019-03-18T13:13:21.681Z,1008
2019-03-18T13:14:21.789Z,1008
2019-03-18T13:15:21.867Z,1008
2019-03-18T13:16:21.945Z,1008
2019-03-18T13:17:22.006Z,1008
2019-03-18T13:18:22.060Z,1008
2019-03-18T13:19:22.203Z,1008